createdAt,value
2019-06-20T00:02:10.767Z,1.55
2019-06-20T00:04:41.105Z,1.50
2019-06-20T00:07:11.703Z,1.35
2019-06-20T00:09:42.104Z,1.50
2019-06-20T00:12:12.567Z,1.55
2019-06-20T00:14:44.417Z,1.60
2019-06-20T00:17:14.780Z,1.82
2019-06-20T00:19:45.050Z,1.82
2019-06-20T00:22:15.355Z,1.62
2019-06-20T00:24:45.715Z,1.90
2019-06-20T00:27:16.001Z,1.65
2019-06-20T00:29:46.283Z,2.00
2019-06-20T00:32:16.593Z,1.72
2019-06-20T00:34:46.858Z,1.42
2019-06-20T00:37:17.230Z,2.20
2019-06-20T00:39:47.531Z,1.95
2019-06-20T00:42:17.903Z,1.25
2019-06-20T00:44:48.181Z,1.60
2019-06-20T00:47:18.480Z,1.40
2019-06-20T00:49:48.753Z,1.80
2019-06-20T00:52:19.065Z,1.40
2019-06-20T00:54:49.377Z,1.85
2019-06-20T00:57:20.012Z,1.60
2019-06-20T00:59:50.289Z,2.00
2019-06-20T01:02:20.659Z,1.60
2019-06-20T01:04:50.937Z,1.57
2019-06-20T01:07:21.242Z,1.70
2019-06-20T01:09:51.538Z,1.95
2019-06-20T01:12:21.832Z,1.62
2019-06-20T01:14:52.176Z,1.92
2019-06-20T01:17:22.482Z,1.90
2019-06-20T01:19:52.750Z,1.27
2019-06-20T01:22:23.122Z,1.55
2019-06-20T01:24:53.708Z,1.92
2019-06-20T01:27:24.410Z,1.92
2019-06-20T01:29:54.705Z,2.08
2019-06-20T01:32:25.016Z,1.52
2019-06-20T01:34:55.388Z,1.72
2019-06-20T01:37:25.662Z,1.75
2019-06-20T01:39:55.960Z,1.77
2019-06-20T01:42:26.430Z,1.75
2019-06-20T01:44:57.002Z,2.22
2019-06-20T01:47:27.316Z,1.95
2019-06-20T01:49:57.951Z,1.60
2019-06-20T01:52:28.231Z,1.70
2019-06-20T01:54:58.624Z,2.37
2019-06-20T01:57:29.003Z,2.00
2019-06-20T01:59:59.447Z,1.55
2019-06-20T02:02:29.853Z,1.95
2019-06-20T02:05:00.171Z,1.75
2019-06-20T02:07:30.809Z,1.57
2019-06-20T02:10:01.106Z,1.82
2019-06-20T02:12:31.572Z,2.00
2019-06-20T02:15:01.883Z,1.80
2019-06-20T02:17:33.430Z,1.98
2019-06-20T02:20:05.334Z,1.62
2019-06-20T02:22:35.610Z,1.75
2019-06-20T02:25:08.085Z,1.67
2019-06-20T02:27:38.374Z,1.80
2019-06-20T02:30:08.967Z,1.98
2019-06-20T02:32:39.240Z,1.70
2019-06-20T02:35:09.626Z,1.95
2019-06-20T02:37:39.975Z,1.55
2019-06-20T02:40:10.623Z,1.70
2019-06-20T02:42:41.184Z,1.87
2019-06-20T02:45:11.894Z,1.70
2019-06-20T02:47:42.240Z,1.70
2019-06-20T02:50:13.350Z,1.65
2019-06-20T02:52:43.762Z,1.82
2019-06-20T02:55:14.489Z,1.57
2019-06-20T02:57:44.832Z,1.60
2019-06-20T03:00:16.040Z,1.52
2019-06-20T03:02:46.307Z,1.60
2019-06-20T03:05:16.846Z,1.82
2019-06-20T03:07:47.121Z,1.55
2019-06-20T03:10:17.663Z,1.70
2019-06-20T03:12:48.230Z,1.80
2019-06-20T03:15:19.742Z,1.72
2019-06-20T03:17:50.096Z,2.12
2019-06-20T03:20:20.707Z,1.85
2019-06-20T03:22:51.101Z,1.90
2019-06-20T03:25:22.487Z,2.10
2019-06-20T03:27:52.782Z,2.15
2019-06-20T03:30:23.254Z,2.20
2019-06-20T03:32:53.626Z,1.87
2019-06-20T03:35:23.892Z,1.92
2019-06-20T03:37:54.260Z,1.77
2019-06-20T03:40:24.602Z,1.82
2019-06-20T03:42:54.910Z,1.90
2019-06-20T03:45:25.207Z,1.98
2019-06-20T03:47:55.531Z,1.80
2019-06-20T03:50:26.018Z,1.50
2019-06-20T03:53:02.287Z,1.67
2019-06-20T03:55:33.796Z,1.60
2019-06-20T03:58:04.702Z,1.90
2019-06-20T04:00:36.612Z,1.50
2019-06-20T04:03:07.262Z,1.90
2019-06-20T04:05:37.541Z,1.60
2019-06-20T04:08:07.906Z,2.20
2019-06-20T04:10:38.446Z,1.42
2019-06-20T04:13:08.750Z,1.37
2019-06-20T04:15:39.096Z,1.27
2019-06-20T04:18:09.422Z,1.92
2019-06-20T04:20:39.685Z,1.52
2019-06-20T04:23:11.092Z,1.85
2019-06-20T04:25:41.434Z,1.72
2019-06-20T04:28:11.740Z,1.47
2019-06-20T04:30:42.007Z,1.07
2019-06-20T04:33:12.312Z,1.40
2019-06-20T04:35:42.733Z,1.45
2019-06-20T04:38:14.276Z,2.00
2019-06-20T04:40:44.787Z,1.67
2019-06-20T04:43:15.081Z,1.85
2019-06-20T04:45:50.180Z,1.52
2019-06-20T04:48:20.719Z,1.17
2019-06-20T04:50:51.010Z,1.30
2019-06-20T04:53:21.308Z,1.95
2019-06-20T04:55:51.851Z,1.80
2019-06-20T04:58:22.302Z,1.70
2019-06-20T05:00:52.640Z,1.80
2019-06-20T05:03:22.949Z,1.42
2019-06-20T05:05:53.246Z,1.90
2019-06-20T05:08:23.860Z,1.47
2019-06-20T05:10:54.246Z,1.65
2019-06-20T05:13:24.628Z,1.62
2019-06-20T05:15:55.062Z,1.30
2019-06-20T05:18:25.408Z,1.60
2019-06-20T05:20:55.774Z,1.70
2019-06-20T05:23:26.076Z,1.25
2019-06-20T05:25:56.377Z,1.55
2019-06-20T05:28:26.655Z,1.15
2019-06-20T05:30:56.963Z,1.70
2019-06-20T05:33:27.304Z,1.60
2019-06-20T05:35:57.599Z,1.42
2019-06-20T05:38:27.947Z,1.52
2019-06-20T05:40:58.250Z,1.47
2019-06-20T05:43:28.603Z,1.62
2019-06-20T05:46:08.728Z,1.60
2019-06-20T05:48:30.890Z,1.60
2019-06-20T05:51:01.186Z,1.70
2019-06-20T05:53:31.549Z,2.00
2019-06-20T05:56:01.844Z,1.65
2019-06-20T05:58:32.945Z,1.57
2019-06-20T06:01:04.436Z,1.40
2019-06-20T06:03:34.888Z,1.25
2019-06-20T06:06:05.337Z,1.12
2019-06-20T06:08:35.620Z,1.75
2019-06-20T06:11:06.008Z,2.15
2019-06-20T06:13:36.310Z,2.00
2019-06-20T06:16:06.733Z,1.70
2019-06-20T06:18:36.966Z,1.80
2019-06-20T06:21:07.343Z,2.08
2019-06-20T06:23:37.614Z,1.98
2019-06-20T06:26:07.917Z,1.65
2019-06-20T06:28:38.287Z,1.75
2019-06-20T06:31:08.633Z,1.80
2019-06-20T06:33:38.921Z,1.60
2019-06-20T06:36:09.247Z,1.90
2019-06-20T06:38:39.632Z,1.62
2019-06-20T06:41:09.978Z,2.02
2019-06-20T06:43:41.997Z,1.75
2019-06-20T06:46:12.678Z,1.85
2019-06-20T06:48:43.121Z,1.57
2019-06-20T06:51:14.491Z,1.80
2019-06-20T06:53:44.787Z,1.45
2019-06-20T06:56:15.128Z,1.87
2019-06-20T06:58:45.426Z,1.92
2019-06-20T07:01:15.757Z,1.85
2019-06-20T07:03:46.128Z,2.02
2019-06-20T07:06:16.475Z,1.72
2019-06-20T07:08:46.775Z,1.72
2019-06-20T07:11:17.056Z,1.55
2019-06-20T07:13:47.350Z,2.02
2019-06-20T07:16:17.631Z,1.82
2019-06-20T07:18:48.750Z,1.60
2019-06-20T07:21:19.035Z,1.57
2019-06-20T07:23:49.369Z,1.95
2019-06-20T07:26:19.624Z,1.60
2019-06-20T07:28:51.613Z,1.90
2019-06-20T07:31:21.896Z,1.40
2019-06-20T07:33:52.202Z,1.92
2019-06-20T07:36:22.559Z,1.60
2019-06-20T07:38:52.866Z,1.40
2019-06-20T07:41:23.198Z,1.32
2019-06-20T07:43:53.600Z,1.60
2019-06-20T07:46:23.901Z,1.57
2019-06-20T07:48:54.275Z,1.35
2019-06-20T07:51:24.690Z,1.75
2019-06-20T07:53:55.060Z,1.32
2019-06-20T07:56:25.366Z,1.62
2019-06-20T07:58:55.710Z,1.40
2019-06-20T08:01:26.134Z,2.10
2019-06-20T08:03:56.563Z,1.32
2019-06-20T08:06:26.994Z,1.70
2019-06-20T08:08:57.269Z,1.85
2019-06-20T08:11:27.718Z,1.95
2019-06-20T08:13:58.004Z,1.95
2019-06-20T08:16:28.324Z,1.90
2019-06-20T08:18:58.684Z,2.20
2019-06-20T08:21:29.153Z,1.70
2019-06-20T08:23:59.559Z,1.52
2019-06-20T08:26:30.601Z,1.52
2019-06-20T08:29:16.687Z,2.10
2019-06-20T08:31:32.985Z,1.55
2019-06-20T08:34:04.426Z,1.60
2019-06-20T08:36:34.817Z,1.92
2019-06-20T08:39:09.005Z,1.50
2019-06-20T08:41:39.595Z,1.30
2019-06-20T08:44:10.120Z,1.37
2019-06-20T08:46:40.514Z,1.40
2019-06-20T08:49:10.776Z,1.02
2019-06-20T08:51:41.091Z,1.00
2019-06-20T08:54:11.385Z,1.20
2019-06-20T08:56:41.870Z,1.52
2019-06-20T08:59:24.003Z,1.25
2019-06-20T09:01:44.618Z,1.32
2019-06-20T09:04:15.110Z,1.02
2019-06-20T09:06:45.435Z,0.90
2019-06-20T09:09:15.725Z,0.88
2019-06-20T09:11:46.026Z,1.12
2019-06-20T09:14:16.344Z,0.90
2019-06-20T09:16:46.642Z,1.02
2019-06-20T09:19:16.950Z,1.12
2019-06-20T09:21:47.299Z,1.20
2019-06-20T09:24:17.746Z,1.35
2019-06-20T09:26:48.062Z,0.93
2019-06-20T09:29:19.870Z,1.10
2019-06-20T09:31:52.512Z,1.27
2019-06-20T09:34:22.311Z,1.17
2019-06-20T09:36:53.674Z,1.32
2019-06-20T09:39:24.464Z,0.98
2019-06-20T09:41:54.757Z,1.30
2019-06-20T09:44:25.133Z,1.22
2019-06-20T09:46:56.364Z,1.00
2019-06-20T09:49:26.804Z,1.17
2019-06-20T09:51:58.642Z,1.10
2019-06-20T09:54:29.090Z,1.20
2019-06-20T09:56:59.432Z,1.07
2019-06-20T09:59:29.776Z,0.98
2019-06-20T10:02:00.154Z,1.00
2019-06-20T10:04:30.512Z,0.80
2019-06-20T10:07:00.871Z,1.00
2019-06-20T10:09:31.160Z,1.10
2019-06-20T10:12:01.620Z,0.80
2019-06-20T10:14:32.086Z,1.10
2019-06-20T10:17:02.359Z,1.00
2019-06-20T10:19:32.677Z,1.17
2019-06-20T10:22:02.959Z,0.95
2019-06-20T10:24:33.265Z,1.22
2019-06-20T10:27:03.731Z,1.12
2019-06-20T10:29:34.175Z,1.57
2019-06-20T10:32:04.671Z,0.93
2019-06-20T10:34:35.032Z,1.00
2019-06-20T10:37:05.404Z,1.00
2019-06-20T10:39:35.751Z,0.90
2019-06-20T10:42:06.399Z,0.95
2019-06-20T10:44:36.681Z,1.40
2019-06-20T10:47:06.982Z,0.80
2019-06-20T10:49:37.261Z,0.95
2019-06-20T10:52:09.360Z,0.70
2019-06-20T10:54:41.619Z,0.75
2019-06-20T10:57:11.641Z,0.90
2019-06-20T10:59:42.745Z,1.00
2019-06-20T11:02:13.284Z,1.00
2019-06-20T11:04:45.658Z,0.85
2019-06-20T11:07:16.079Z,0.70
2019-06-20T11:09:47.149Z,0.95
2019-06-20T11:12:17.705Z,0.78
2019-06-20T11:14:48.471Z,0.90
2019-06-20T11:17:18.817Z,0.65
2019-06-20T11:19:49.091Z,0.90
2019-06-20T11:22:19.473Z,0.78
2019-06-20T11:24:49.740Z,0.68
2019-06-20T11:27:20.040Z,0.78
2019-06-20T11:29:50.330Z,0.70
2019-06-20T11:32:20.712Z,0.82
2019-06-20T11:34:51.077Z,1.05
2019-06-20T11:37:21.404Z,0.80
2019-06-20T11:39:51.691Z,0.90
2019-06-20T11:42:22.073Z,0.60
2019-06-20T11:44:52.352Z,0.68
2019-06-20T11:47:22.736Z,0.85
2019-06-20T11:49:53.095Z,0.82
2019-06-20T11:52:23.395Z,0.70
2019-06-20T11:54:53.678Z,0.80
2019-06-20T11:57:24.058Z,1.00
2019-06-20T11:59:54.550Z,0.57
2019-06-20T12:02:24.795Z,0.82
2019-06-20T12:04:55.109Z,0.90
2019-06-20T12:07:25.391Z,0.60
2019-06-20T12:09:55.684Z,0.70
2019-06-20T12:12:25.973Z,0.90
2019-06-20T12:14:56.452Z,0.80
2019-06-20T12:17:26.812Z,0.78
2019-06-20T12:19:57.185Z,0.93
2019-06-20T12:22:27.723Z,0.60
2019-06-20T12:24:58.118Z,0.90
2019-06-20T12:27:28.392Z,0.90
2019-06-20T12:29:58.695Z,0.80
2019-06-20T12:32:30.106Z,0.60
2019-06-20T12:35:00.400Z,1.00
2019-06-20T12:37:30.800Z,0.70
2019-06-20T12:40:01.086Z,0.75
2019-06-20T12:42:31.426Z,0.75
2019-06-20T12:45:01.891Z,0.72
2019-06-20T12:47:32.155Z,0.80
2019-06-20T12:50:02.546Z,0.98
2019-06-20T12:52:32.920Z,0.70
2019-06-20T12:55:03.382Z,0.70
2019-06-20T12:57:33.815Z,0.70
2019-06-20T13:00:09.800Z,0.70
2019-06-20T13:02:42.033Z,0.78
2019-06-20T13:05:14.606Z,0.68
2019-06-20T13:07:46.355Z,1.00
2019-06-20T13:10:17.764Z,0.70
2019-06-20T13:12:48.857Z,0.75
2019-06-20T13:15:19.465Z,0.60
2019-06-20T13:17:50.068Z,0.72
2019-06-20T13:20:20.724Z,0.72
2019-06-20T13:22:51.062Z,0.60
2019-06-20T13:25:21.435Z,0.80
2019-06-20T13:27:51.806Z,0.57
2019-06-20T13:30:22.650Z,0.82
2019-06-20T13:32:53.014Z,0.98
2019-06-20T13:35:23.366Z,0.70
2019-06-20T13:37:53.676Z,2.10
2019-06-20T13:40:24.269Z,1.02
2019-06-20T13:42:54.950Z,1.15
2019-06-20T13:45:27.085Z,0.68
2019-06-20T13:47:57.403Z,1.15
2019-06-20T13:50:28.137Z,0.70
2019-06-20T13:52:59.502Z,1.10
2019-06-20T13:55:29.795Z,0.93
2019-06-20T13:58:00.084Z,0.78
2019-06-20T14:00:32.382Z,6.35
2019-06-20T14:03:02.822Z,2.27
2019-06-20T14:05:33.100Z,1.90
2019-06-20T14:08:03.455Z,1.50
2019-06-20T14:10:33.695Z,1.40
2019-06-20T14:13:18.224Z,1.05
2019-06-20T14:15:37.799Z,1.20
2019-06-20T14:18:08.182Z,0.80
2019-06-20T14:20:38.579Z,1.20
2019-06-20T14:23:08.916Z,1.75
2019-06-20T14:25:39.163Z,1.40
2019-06-20T14:28:09.490Z,1.10
2019-06-20T14:30:39.826Z,1.22
2019-06-20T14:33:10.130Z,2.17
2019-06-20T14:35:43.494Z,2.22
2019-06-20T14:38:12.816Z,1.85
2019-06-20T14:40:44.087Z,1.50
2019-06-20T14:43:15.292Z,1.15
2019-06-20T14:45:46.891Z,0.90
2019-06-20T14:48:17.197Z,1.15
2019-06-20T14:50:47.865Z,1.20
2019-06-20T14:53:19.599Z,1.15
2019-06-20T14:55:49.906Z,1.32
2019-06-20T14:58:20.270Z,1.25
2019-06-20T15:00:51.844Z,1.32
2019-06-20T15:03:22.461Z,1.20
2019-06-20T15:05:52.768Z,1.35
2019-06-20T15:08:23.131Z,1.07
2019-06-20T15:10:54.012Z,1.37
2019-06-20T15:13:24.357Z,2.10
2019-06-20T15:15:55.668Z,2.00
2019-06-20T15:18:26.197Z,1.42
2019-06-20T15:20:59.280Z,1.27
2019-06-20T15:23:28.555Z,1.37
2019-06-20T15:25:58.935Z,1.60
2019-06-20T15:28:29.227Z,1.47
2019-06-20T15:30:59.584Z,1.15
2019-06-20T15:33:29.816Z,1.00
2019-06-20T15:36:00.140Z,1.00
2019-06-20T15:38:30.425Z,2.92
2019-06-20T15:41:00.748Z,1.47
2019-06-20T15:43:31.038Z,0.75
2019-06-20T15:46:01.386Z,1.07
2019-06-20T15:48:31.735Z,1.35
2019-06-20T15:51:02.038Z,1.40
2019-06-20T15:53:32.390Z,1.75
2019-06-20T15:56:02.690Z,1.10
2019-06-20T15:58:33.015Z,1.10
2019-06-20T16:01:03.361Z,1.40
2019-06-20T16:03:33.712Z,1.07
2019-06-20T16:06:04.469Z,0.80
2019-06-20T16:08:34.764Z,0.88
2019-06-20T16:11:05.191Z,1.37
2019-06-20T16:13:35.509Z,1.70
2019-06-20T16:16:05.992Z,1.47
2019-06-20T16:18:36.321Z,0.68
2019-06-20T16:21:06.637Z,0.93
2019-06-20T16:23:37.043Z,0.70
2019-06-20T16:26:07.425Z,0.50
2019-06-20T16:28:38.792Z,0.80
2019-06-20T16:31:23.126Z,0.65
2019-06-20T16:33:42.123Z,1.40
2019-06-20T16:36:13.245Z,2.25
2019-06-20T16:38:44.088Z,1.02
2019-06-20T16:41:14.464Z,1.10
2019-06-20T16:43:44.773Z,0.93
2019-06-20T16:46:15.048Z,0.95
2019-06-20T16:48:45.452Z,0.85
2019-06-20T16:51:15.725Z,0.50
2019-06-20T16:53:46.043Z,0.88
2019-06-20T16:56:16.338Z,0.60
2019-06-20T16:58:46.786Z,0.57
2019-06-20T17:01:17.269Z,0.50
2019-06-20T17:03:47.575Z,0.50
2019-06-20T17:06:17.923Z,0.80
2019-06-20T17:08:49.213Z,0.42
2019-06-20T17:11:19.483Z,0.75
2019-06-20T17:13:49.922Z,0.60
2019-06-20T17:16:20.315Z,0.80
2019-06-20T17:18:50.620Z,0.60
2019-06-20T17:21:20.974Z,0.88
2019-06-20T17:23:51.507Z,0.70
2019-06-20T17:26:21.791Z,0.60
2019-06-20T17:28:52.094Z,0.75
2019-06-20T17:31:22.377Z,0.90
2019-06-20T17:33:57.648Z,0.68
2019-06-20T17:36:26.014Z,0.60
2019-06-20T17:38:56.355Z,0.62
2019-06-20T17:41:26.654Z,0.65
2019-06-20T17:43:56.977Z,0.70
2019-06-20T17:46:27.256Z,0.80
2019-06-20T17:48:57.552Z,0.80
2019-06-20T17:51:27.835Z,0.88
2019-06-20T17:53:58.119Z,0.80
2019-06-20T17:56:28.547Z,0.50
2019-06-20T17:58:58.878Z,0.75
2019-06-20T18:01:29.167Z,0.60
2019-06-20T18:04:12.996Z,0.95
2019-06-20T18:06:31.578Z,0.90
2019-06-20T18:09:01.859Z,0.95
2019-06-20T18:11:33.855Z,0.57
2019-06-20T18:14:04.427Z,1.00
2019-06-20T18:16:34.722Z,0.90
2019-06-20T18:19:05.270Z,0.90
2019-06-20T18:21:35.643Z,1.00
2019-06-20T18:24:07.875Z,0.60
2019-06-20T18:26:38.179Z,0.50
2019-06-20T18:29:08.453Z,0.75
2019-06-20T18:31:42.201Z,0.72
2019-06-20T18:34:10.828Z,0.80
2019-06-20T18:36:43.417Z,1.00
2019-06-20T18:39:13.259Z,0.82
2019-06-20T18:41:43.579Z,0.90
2019-06-20T18:44:14.921Z,0.80
2019-06-20T18:46:45.298Z,0.88
2019-06-20T18:49:16.105Z,0.78
2019-06-20T18:51:47.038Z,0.95
2019-06-20T18:54:17.399Z,1.07
2019-06-20T18:56:47.836Z,0.60
2019-06-20T18:59:18.115Z,0.57
2019-06-20T19:01:48.433Z,0.70
2019-06-20T19:04:18.736Z,0.62
2019-06-20T19:06:49.114Z,0.80
2019-06-20T19:09:19.389Z,1.07
2019-06-20T19:11:49.702Z,0.60
2019-06-20T19:14:19.979Z,0.50
2019-06-20T19:16:50.343Z,0.68
2019-06-20T19:19:20.970Z,0.72
2019-06-20T19:21:51.272Z,0.80
2019-06-20T19:24:21.620Z,0.82
2019-06-20T19:26:51.937Z,0.60
2019-06-20T19:29:22.236Z,0.85
2019-06-20T19:31:52.520Z,0.62
2019-06-20T19:34:22.909Z,0.68
2019-06-20T19:36:53.190Z,0.50
2019-06-20T19:39:23.566Z,0.45
2019-06-20T19:41:53.848Z,0.40
2019-06-20T19:44:24.173Z,0.50
2019-06-20T19:46:54.515Z,0.40
2019-06-20T19:49:25.050Z,0.42
2019-06-20T19:51:55.320Z,0.50
2019-06-20T19:54:25.756Z,2.20
2019-06-20T19:56:56.265Z,1.00
2019-06-20T19:59:26.631Z,0.53
2019-06-20T20:01:57.140Z,0.75
2019-06-20T20:04:27.586Z,0.60
2019-06-20T20:06:57.863Z,0.40
2019-06-20T20:09:28.235Z,0.40
2019-06-20T20:11:58.524Z,0.50
2019-06-20T20:14:29.867Z,0.75
2019-06-20T20:17:00.247Z,0.40
2019-06-20T20:19:30.580Z,0.60
2019-06-20T20:22:01.933Z,0.50
2019-06-20T20:24:32.367Z,1.32
2019-06-20T20:27:02.727Z,0.70
2019-06-20T20:29:34.103Z,0.70
2019-06-20T20:32:04.551Z,1.27
2019-06-20T20:34:34.865Z,0.60
2019-06-20T20:37:05.272Z,0.62
2019-06-20T20:39:36.059Z,0.50
2019-06-20T20:42:06.747Z,1.90
2019-06-20T20:44:37.058Z,0.98
2019-06-20T20:47:07.356Z,0.40
2019-06-20T20:49:37.653Z,0.60
2019-06-20T20:52:08.145Z,0.60
2019-06-20T20:54:38.478Z,0.70
2019-06-20T20:57:08.935Z,0.40
2019-06-20T20:59:39.300Z,0.62
2019-06-20T21:02:09.613Z,0.50
2019-06-20T21:04:39.915Z,0.65
2019-06-20T21:07:10.290Z,0.70
2019-06-20T21:09:40.568Z,0.93
2019-06-20T21:12:11.018Z,0.33
2019-06-20T21:14:41.373Z,0.47
2019-06-20T21:17:11.822Z,0.55
2019-06-20T21:19:42.254Z,0.62
2019-06-20T21:22:12.547Z,0.57
2019-06-20T21:24:42.888Z,0.50
2019-06-20T21:27:13.227Z,0.68
2019-06-20T21:29:43.632Z,0.37
2019-06-20T21:32:13.930Z,0.82
2019-06-20T21:34:44.293Z,0.50
2019-06-20T21:37:14.584Z,0.50
2019-06-20T21:39:44.941Z,0.60
2019-06-20T21:42:15.950Z,1.50
2019-06-20T21:44:46.330Z,1.00
2019-06-20T21:47:16.655Z,0.55
2019-06-20T21:49:46.953Z,0.65
2019-06-20T21:52:17.527Z,3.20
2019-06-20T21:54:47.879Z,1.07
2019-06-20T21:57:18.288Z,1.00
2019-06-20T21:59:48.720Z,0.80
2019-06-20T22:02:19.261Z,0.60
2019-06-20T22:04:54.397Z,0.60
2019-06-20T22:07:22.618Z,0.90
2019-06-20T22:09:53.002Z,0.85
2019-06-20T22:12:23.379Z,0.70
2019-06-20T22:14:53.723Z,0.40
2019-06-20T22:17:24.098Z,0.80
2019-06-20T22:19:54.464Z,0.93
2019-06-20T22:22:24.821Z,0.80
2019-06-20T22:24:55.158Z,0.95
2019-06-20T22:27:25.438Z,0.85
2019-06-20T22:29:55.746Z,0.80
2019-06-20T22:32:26.104Z,0.68
2019-06-20T22:34:56.435Z,0.75
2019-06-20T22:37:26.793Z,0.78
2019-06-20T22:39:57.179Z,1.00
2019-06-20T22:42:27.482Z,1.30
2019-06-20T22:44:58.781Z,1.07
2019-06-20T22:47:29.167Z,1.10
2019-06-20T22:49:59.565Z,1.22
2019-06-20T22:52:29.856Z,0.85
2019-06-20T22:55:00.171Z,1.20
2019-06-20T22:57:30.487Z,0.88
2019-06-20T23:00:00.815Z,1.05
2019-06-20T23:02:31.164Z,1.00
2019-06-20T23:05:01.469Z,1.20
2019-06-20T23:07:32.896Z,1.07
2019-06-20T23:10:10.329Z,1.50
2019-06-20T23:12:36.974Z,0.70
2019-06-20T23:15:08.389Z,0.88
2019-06-20T23:17:38.768Z,0.70
2019-06-20T23:20:11.252Z,0.60
2019-06-20T23:22:41.557Z,0.70
2019-06-20T23:25:13.550Z,0.78
2019-06-20T23:27:43.934Z,0.90
2019-06-20T23:30:15.521Z,0.78
2019-06-20T23:32:45.841Z,0.80
2019-06-20T23:35:16.398Z,0.95
2019-06-20T23:37:46.680Z,0.93
2019-06-20T23:40:19.647Z,0.72
2019-06-20T23:42:50.016Z,0.70
2019-06-20T23:45:21.499Z,1.05
2019-06-20T23:47:51.796Z,0.60
2019-06-20T23:50:22.270Z,0.85
2019-06-20T23:52:54.558Z,1.07
2019-06-20T23:55:24.824Z,0.42
2019-06-20T23:57:55.109Z,0.55
